Fidato — PB5970 — position and weather

sailwx.info

Track history (hours):
 
Tides and Currents Weather Stations Pressure Air Temp Water Temp Dewpoint Dewpoint Depression Visibility Wind Speed Wind Dir Waves Ship Positions

Fidato

Last reported at 2017-May-29 03:43 UTC. Time now 2017-May-29 13:22 UTC.
Position N 50°41' E 007°11'.

Length 135 m; draft 2.5 m.

Type: Ship. MMSI: 244670975.

Date/timePositionNaut miles runAvg speedWind from/ knotsBaromVisibWave heightAir tempDewpointWater temp
2017-May-29 03:43N 50°41' E 007°11'3 0.3
2017-May-28 20:07N 50°43' E 007°08'1 4.6
2017-May-28 19:58N 50°44' E 007°07'2 4.1
2017-May-28 19:30N 50°45' E 007°06'3 4.8
2017-May-28 18:58N 50°47' E 007°03'2 4.6
2017-May-28 18:27N 50°49' E 007°02'2 4.0
2017-May-28 17:53N 50°51' E 006°59'2 4.6
2017-May-28 17:26N 50°52' E 007°01'2 3.2
2017-May-28 16:53N 50°54' E 007°02'2 4.3
2017-May-28 16:27N 50°54' E 006°59'3 4.8
2017-May-28 15:56N 50°56' E 006°58'14 4.0
2017-May-28 12:26N 51°10' E 006°51'2 4.5
2017-May-28 12:00N 51°09' E 006°49'2 4.2
2017-May-28 11:30N 51°11' E 006°48'2 4.8
2017-May-28 11:00N 51°11' E 006°44'2 5.0
2017-May-28 10:30N 51°13' E 006°43'2 3.4
2017-May-28 10:00N 51°14' E 006°46'3 4.6
2017-May-28 09:27N 51°15' E 006°43'6 3.9
2017-May-28 07:54N 51°21' E 006°40'2 3.9
2017-May-28 07:30N 51°22' E 006°41'2 5.0
2017-May-28 07:00N 51°23' E 006°44'2 4.9
2017-May-28 06:30N 51°26' E 006°43'2 4.8
2017-May-28 06:00N 51°28' E 006°43'2 3.1
2017-May-28 05:30N 51°30' E 006°42'2 3.5
2017-May-28 05:00N 51°31' E 006°42'2 4.5
2017-May-28 04:30N 51°34' E 006°41'2 3.7
2017-May-28 03:54N 51°34' E 006°38'2 4.1
2017-May-28 03:30N 51°35' E 006°36'1 2.4
2017-May-28 03:00N 51°36' E 006°36'0 0.0
2017-May-28 02:30N 51°36' E 006°36'0 0.0
2017-May-28 02:00N 51°36' E 006°36'0 0.0
2017-May-28 01:31N 51°36' E 006°36'0 0.0
2017-May-28 01:00N 51°36' E 006°36'0 0.0
2017-May-28 00:30N 51°36' E 006°36'0 0.0
2017-May-28 00:00N 51°36' E 006°36'0 0.0
2017-May-27 23:30N 51°36' E 006°36'0 0.0
2017-May-27 23:00N 51°36' E 006°36'0 0.0
2017-May-27 22:30N 51°36' E 006°36'0 0.0
2017-May-27 22:00N 51°36' E 006°36'0 0.0
2017-May-27 21:30N 51°36' E 006°36'0 0.0
2017-May-27 21:00N 51°36' E 006°36'0 0.0
2017-May-27 20:30N 51°36' E 006°36'0 0.0
2017-May-27 20:00N 51°36' E 006°36'0 0.0
2017-May-27 19:30N 51°36' E 006°36'2 4.2
2017-May-27 19:00N 51°39' E 006°36'2 4.9
2017-May-27 18:30N 51°40' E 006°33'3 5.5
2017-May-27 18:00N 51°40' E 006°28'3 5.2
2017-May-27 17:28N 51°43' E 006°26'2 4.7
2017-May-27 17:00N 51°45' E 006°25'3 5.6
2017-May-27 16:30N 51°45' E 006°21'3 6.0
2017-May-27 16:00N 51°48' E 006°19'3 6.3
2017-May-27 15:30N 51°50' E 006°14'3 5.6
2017-May-27 15:00N 51°50' E 006°10'3 6.2
2017-May-27 14:30N 51°51' E 006°05'5 5.0
2017-May-27 13:30N 51°52' E 005°57'2 4.9
2017-May-27 13:00N 51°52' E 005°53'3 5.1
2017-May-27 12:30N 51°52' E 005°49'3 6.3
2017-May-27 12:00N 51°53' E 005°44'3 5.8
2017-May-27 11:30N 51°54' E 005°39'3 6.4
2017-May-27 11:00N 51°54' E 005°34'18 5.5
2017-May-27 07:45N 51°49' E 005°07'2 6.6
2017-May-27 07:26N 51°49' E 005°03'3 7.4
2017-May-27 07:00N 51°49' E 004°58'4 7.9
2017-May-27 06:30N 51°49' E 004°52'4 8.7
2017-May-27 06:00N 51°49' E 004°45'4 8.0
2017-May-27 05:30N 51°48' E 004°39'4 8.0
2017-May-27 05:00N 51°50' E 004°33'5 9.7
2017-May-27 04:31N 51°51' E 004°25'4 8.8
2017-May-27 04:00N 51°52' E 004°18'4 8.2
2017-May-27 03:30N 51°54' E 004°13'2 4.0
2017-May-27 03:00N 51°56' E 004°10'0 0.0
2017-May-27 02:30N 51°56' E 004°10'0 0.0
2017-May-27 02:00N 51°56' E 004°10'0 0.0
2017-May-27 01:30N 51°56' E 004°10'0 0.0
2017-May-27 01:00N 51°56' E 004°10'0 0.0
2017-May-27 00:30N 51°56' E 004°10'0 0.0
2017-May-27 00:00N 51°56' E 004°10'0 0.0
2017-May-26 23:30N 51°56' E 004°10'0 0.0
2017-May-26 23:00N 51°56' E 004°10'0 0.0
2017-May-26 22:30N 51°56' E 004°10'0 0.0
2017-May-26 22:00N 51°56' E 004°10'0 0.0
2017-May-26 21:30N 51°56' E 004°10'1 2.4
2017-May-26 21:00N 51°56' E 004°08'3 5.9
2017-May-26 20:30N 51°56' E 004°04'0 0.0
2017-May-26 20:00N 51°56' E 004°04'0 0.0
2017-May-26 19:30N 51°56' E 004°04'0 0.0
2017-May-26 19:01N 51°56' E 004°04'0 0.0
2017-May-26 18:31N 51°56' E 004°04'0 0.0
2017-May-26 18:01N 51°56' E 004°04'0 0.2
2017-May-26 17:31N 51°56' E 004°04'0 0.2
2017-May-26 17:01N 51°56' E 004°04'0 0.0
2017-May-26 16:31N 51°56' E 004°04'0 0.0
2017-May-26 16:00N 51°56' E 004°04'0 0.0
2017-May-26 15:31N 51°56' E 004°04'0 0.0
2017-May-26 15:00N 51°56' E 004°04'0 0.0
2017-May-26 14:01N 51°56' E 004°04'0 0.0
2017-May-26 13:31N 51°56' E 004°04'0 0.0
2017-May-26 13:01N 51°56' E 004°04'1 2.1
2017-May-26 12:31N 51°57' E 004°02'0 0.0
2017-May-26 12:00N 51°57' E 004°02'0 0.0
2017-May-26 11:30N 51°57' E 004°02'1 1.6
2017-May-26 11:01N 51°56' E 004°03'1 1.6
2017-May-26 10:31N 51°57' E 004°02'0 0.0
2017-May-26 10:01N 51°57' E 004°02'0 0.0
2017-May-26 09:30N 51°57' E 004°02'0 0.0
2017-May-26 09:01N 51°57' E 004°02'0 0.0
2017-May-26 08:31N 51°57' E 004°02'0 0.0
2017-May-26 08:01N 51°57' E 004°02'0 0.0
2017-May-26 07:31N 51°57' E 004°02'0 0.0
2017-May-26 07:01N 51°57' E 004°02'0 0.0
2017-May-26 06:31N 51°57' E 004°02'0 0.0
2017-May-26 06:01N 51°57' E 004°02'0 0.0
2017-May-26 05:31N 51°57' E 004°02'0 0.0
2017-May-26 05:00N 51°57' E 004°02'0 0.0
2017-May-26 04:30N 51°57' E 004°02'0 0.1
2017-May-26 04:01N 51°56' E 004°02'0 0.1
2017-May-26 03:31N 51°57' E 004°02'0 0.0
2017-May-26 03:00N 51°57' E 004°02'0 0.0
2017-May-26 02:31N 51°57' E 004°02'0 0.0
2017-May-26 02:00N 51°57' E 004°02'0 0.0
2017-May-26 01:30N 51°57' E 004°02'0 0.0
2017-May-26 01:00N 51°57' E 004°02'0 0.0
2017-May-26 00:31N 51°57' E 004°02'0 0.0
2017-May-26 00:00N 51°57' E 004°02'0 0.0
2017-May-25 23:31N 51°57' E 004°02'0 0.0
2017-May-25 23:00N 51°57' E 004°02'0 0.0
2017-May-25 22:31N 51°57' E 004°02'0 0.0
2017-May-25 22:01N 51°57' E 004°02'0 0.0
2017-May-25 21:31N 51°57' E 004°02'0 0.0
2017-May-25 21:00N 51°57' E 004°02'0 0.0
2017-May-25 20:31N 51°57' E 004°02'0 0.0
2017-May-25 20:01N 51°57' E 004°02'0 0.0
2017-May-25 19:31N 51°57' E 004°02'0 0.0
2017-May-25 19:01N 51°57' E 004°02'0 0.0
2017-May-25 18:31N 51°57' E 004°02'0 0.0
2017-May-25 18:01N 51°57' E 004°02'0 0.0
2017-May-25 17:31N 51°57' E 004°02'0 0.0
2017-May-25 17:01N 51°57' E 004°02'0 0.0
2017-May-25 16:31N 51°57' E 004°02'0 0.0
2017-May-25 16:01N 51°57' E 004°02'0 0.0
2017-May-25 15:31N 51°57' E 004°02'0 0.0
2017-May-25 15:00N 51°57' E 004°02'2 4.6
2017-May-25 14:31N 51°56' E 004°06'8 7.6
2017-May-25 13:31N 51°52' E 004°16'4 7.7
2017-May-25 13:00N 51°51' E 004°22'5 9.3
2017-May-25 12:30N 51°50' E 004°29'5 9.2
2017-May-25 12:00N 51°48' E 004°36'2 4.0
2017-May-25 11:30N 51°49' E 004°39'0 0.0
2017-May-25 11:00N 51°49' E 004°39'0 0.5
2017-May-25 10:31N 51°49' E 004°39'5 9.6
2017-May-25 10:00N 51°44' E 004°38'18 6.2
2017-May-25 07:07N 51°34' E 004°13'7 8.5
2017-May-25 06:16N 51°27' E 004°14'0 0.0
2017-May-25 06:00N 51°27' E 004°14'4 6.5
2017-May-25 05:21N 51°23' E 004°15'2 5.8
2017-May-25 04:56N 51°21' E 004°18'1 1.4
2017-May-25 04:30N 51°21' E 004°17'0 0.0
2017-May-25 04:00N 51°21' E 004°17'0 0.0
2017-May-25 03:30N 51°21' E 004°17'0 0.0
2017-May-25 03:00N 51°21' E 004°17'0 0.0
2017-May-25 02:30N 51°21' E 004°17'0 0.0
2017-May-25 02:00N 51°21' E 004°17'0 0.0
2017-May-25 01:30N 51°21' E 004°17'0 0.0
2017-May-25 01:00N 51°21' E 004°17'0 0.0
2017-May-25 00:30N 51°21' E 004°17'0 0.0
2017-May-25 00:00N 51°21' E 004°17'0 0.0
2017-May-24 23:30N 51°21' E 004°17'0 0.0
2017-May-24 23:00N 51°21' E 004°17'0 0.0
2017-May-24 22:30N 51°21' E 004°17'0 0.0
2017-May-24 22:00N 51°21' E 004°17'0 0.0
2017-May-24 21:30N 51°21' E 004°17'0 0.0
2017-May-24 21:00N 51°21' E 004°17'0 0.0
2017-May-24 20:30N 51°21' E 004°17'0 0.0
2017-May-24 20:00N 51°21' E 004°17'0 0.0
2017-May-24 19:30N 51°21' E 004°17'0 0.0
2017-May-24 19:00N 51°21' E 004°17'0 0.0
2017-May-24 18:30N 51°21' E 004°17'0 0.0
2017-May-24 18:00N 51°21' E 004°17'0 0.0
2017-May-24 17:30N 51°21' E 004°17'0 0.0
2017-May-24 17:00N 51°21' E 004°17'0 0.0
2017-May-24 16:30N 51°21' E 004°17'0 0.0
2017-May-24 15:59N 51°21' E 004°17'0 0.0
2017-May-24 15:30N 51°21' E 004°17'0 0.0
2017-May-24 14:30N 51°21' E 004°17'4 4.3
2017-May-24 13:29N 51°25' E 004°14'14 5.7
2017-May-24 10:57N 51°39' E 004°19'4 8.5
2017-May-24 10:30N 51°41' E 004°24'1 2.4
2017-May-24 09:59N 51°42' E 004°26'4 8.2
2017-May-24 09:30N 51°42' E 004°32'4 8.5
2017-May-24 09:00N 51°43' E 004°39'4 8.8
2017-May-24 08:30N 51°46' E 004°44'4 8.7
2017-May-24 08:00N 51°48' E 004°50'2 3.3
2017-May-24 07:30N 51°49' E 004°53'2 3.3
2017-May-24 06:59N 51°50' E 004°55'23 8.6
2017-May-24 04:19N 51°54' E 005°31'1 0.3
2017-May-24 02:05N 51°54' E 005°32'1 0.1
2017-May-23 20:42N 51°54' E 005°33'2 9.2
2017-May-23 20:27N 51°54' E 005°37'4 9.2
2017-May-23 20:01N 51°53' E 005°44'5 9.0
2017-May-23 19:30N 51°52' E 005°50'4 7.6
2017-May-23 19:00N 51°52' E 005°56'3 6.3
2017-May-23 18:30N 51°53' E 006°01'5 9.1
2017-May-23 18:00N 51°51' E 006°08'5 9.3
2017-May-23 17:30N 51°50' E 006°15'4 8.9
2017-May-23 17:00N 51°46' E 006°20'4 7.5
2017-May-23 16:30N 51°44' E 006°25'4 7.8
2017-May-23 16:00N 51°41' E 006°28'4 8.7
2017-May-23 15:30N 51°40' E 006°35'4 8.2
2017-May-23 15:00N 51°36' E 006°36'7 6.6
2017-May-23 13:55N 51°30' E 006°43'2 5.2
2017-May-23 13:30N 51°28' E 006°43'11 6.9
2017-May-23 11:54N 51°17' E 006°42'4 8.9
2017-May-23 11:30N 51°14' E 006°46'3 6.0
2017-May-23 11:00N 51°11' E 006°44'4 7.0
2017-May-23 10:30N 51°09' E 006°48'13 6.6
2017-May-23 08:27N 50°58' E 006°59'4 8.4
2017-May-23 08:00N 50°54' E 006°60'3 4.9
2017-May-23 07:27N 50°51' E 007°00'3 6.9
2017-May-23 06:56N 50°48' E 007°02'4 9.7
2017-May-23 06:30N 50°45' E 007°06'5 9.0
2017-May-23 06:00N 50°41' E 007°11'  
2017-May-19 04:05N 49°31' E 008°26'1 8.6
2017-May-19 04:00N 49°30' E 008°26'  
Track history (hours):
 
Tides and Currents Weather Stations Pressure Air Temp Water Temp Dewpoint Dewpoint Depression Visibility Wind Speed Wind Dir Waves Ship Positions

Fidato

Last reported at 2017-May-29 03:43 UTC. Time now 2017-May-29 13:22 UTC.
Position N 50°41' E 007°11'.

Length 135 m; draft 2.5 m.

Type: Ship. MMSI: 244670975.

Date/timePositionNaut miles runAvg speedWind from/ knotsBaromVisibWave heightAir tempDewpointWater temp
2017-May-29 03:43N 50°41' E 007°11'3 0.3
2017-May-28 20:07N 50°43' E 007°08'1 4.6
2017-May-28 19:58N 50°44' E 007°07'2 4.1
2017-May-28 19:30N 50°45' E 007°06'3 4.8
2017-May-28 18:58N 50°47' E 007°03'2 4.6
2017-May-28 18:27N 50°49' E 007°02'2 4.0
2017-May-28 17:53N 50°51' E 006°59'2 4.6
2017-May-28 17:26N 50°52' E 007°01'2 3.2
2017-May-28 16:53N 50°54' E 007°02'2 4.3
2017-May-28 16:27N 50°54' E 006°59'3 4.8
2017-May-28 15:56N 50°56' E 006°58'14 4.0
2017-May-28 12:26N 51°10' E 006°51'2 4.5
2017-May-28 12:00N 51°09' E 006°49'2 4.2
2017-May-28 11:30N 51°11' E 006°48'2 4.8
2017-May-28 11:00N 51°11' E 006°44'2 5.0
2017-May-28 10:30N 51°13' E 006°43'2 3.4
2017-May-28 10:00N 51°14' E 006°46'3 4.6
2017-May-28 09:27N 51°15' E 006°43'6 3.9
2017-May-28 07:54N 51°21' E 006°40'2 3.9
2017-May-28 07:30N 51°22' E 006°41'2 5.0
2017-May-28 07:00N 51°23' E 006°44'2 4.9
2017-May-28 06:30N 51°26' E 006°43'2 4.8
2017-May-28 06:00N 51°28' E 006°43'2 3.1
2017-May-28 05:30N 51°30' E 006°42'2 3.5
2017-May-28 05:00N 51°31' E 006°42'2 4.5
2017-May-28 04:30N 51°34' E 006°41'2 3.7
2017-May-28 03:54N 51°34' E 006°38'2 4.1
2017-May-28 03:30N 51°35' E 006°36'1 2.4
2017-May-28 03:00N 51°36' E 006°36'0 0.0
2017-May-28 02:30N 51°36' E 006°36'0 0.0
2017-May-28 02:00N 51°36' E 006°36'0 0.0
2017-May-28 01:31N 51°36' E 006°36'0 0.0
2017-May-28 01:00N 51°36' E 006°36'0 0.0
2017-May-28 00:30N 51°36' E 006°36'0 0.0
2017-May-28 00:00N 51°36' E 006°36'0 0.0
2017-May-27 23:30N 51°36' E 006°36'0 0.0
2017-May-27 23:00N 51°36' E 006°36'0 0.0
2017-May-27 22:30N 51°36' E 006°36'0 0.0
2017-May-27 22:00N 51°36' E 006°36'0 0.0
2017-May-27 21:30N 51°36' E 006°36'0 0.0
2017-May-27 21:00N 51°36' E 006°36'0 0.0
2017-May-27 20:30N 51°36' E 006°36'0 0.0
2017-May-27 20:00N 51°36' E 006°36'0 0.0
2017-May-27 19:30N 51°36' E 006°36'2 4.2
2017-May-27 19:00N 51°39' E 006°36'2 4.9
2017-May-27 18:30N 51°40' E 006°33'3 5.5
2017-May-27 18:00N 51°40' E 006°28'3 5.2
2017-May-27 17:28N 51°43' E 006°26'2 4.7
2017-May-27 17:00N 51°45' E 006°25'3 5.6
2017-May-27 16:30N 51°45' E 006°21'3 6.0
2017-May-27 16:00N 51°48' E 006°19'3 6.3
2017-May-27 15:30N 51°50' E 006°14'3 5.6
2017-May-27 15:00N 51°50' E 006°10'3 6.2
2017-May-27 14:30N 51°51' E 006°05'5 5.0
2017-May-27 13:30N 51°52' E 005°57'2 4.9
2017-May-27 13:00N 51°52' E 005°53'3 5.1
2017-May-27 12:30N 51°52' E 005°49'3 6.3
2017-May-27 12:00N 51°53' E 005°44'3 5.8
2017-May-27 11:30N 51°54' E 005°39'3 6.4
2017-May-27 11:00N 51°54' E 005°34'18 5.5
2017-May-27 07:45N 51°49' E 005°07'2 6.6
2017-May-27 07:26N 51°49' E 005°03'3 7.4
2017-May-27 07:00N 51°49' E 004°58'4 7.9
2017-May-27 06:30N 51°49' E 004°52'4 8.7
2017-May-27 06:00N 51°49' E 004°45'4 8.0
2017-May-27 05:30N 51°48' E 004°39'4 8.0
2017-May-27 05:00N 51°50' E 004°33'5 9.7
2017-May-27 04:31N 51°51' E 004°25'4 8.8
2017-May-27 04:00N 51°52' E 004°18'4 8.2
2017-May-27 03:30N 51°54' E 004°13'2 4.0
2017-May-27 03:00N 51°56' E 004°10'0 0.0
2017-May-27 02:30N 51°56' E 004°10'0 0.0
2017-May-27 02:00N 51°56' E 004°10'0 0.0
2017-May-27 01:30N 51°56' E 004°10'0 0.0
2017-May-27 01:00N 51°56' E 004°10'0 0.0
2017-May-27 00:30N 51°56' E 004°10'0 0.0
2017-May-27 00:00N 51°56' E 004°10'0 0.0
2017-May-26 23:30N 51°56' E 004°10'0 0.0
2017-May-26 23:00N 51°56' E 004°10'0 0.0
2017-May-26 22:30N 51°56' E 004°10'0 0.0
2017-May-26 22:00N 51°56' E 004°10'0 0.0
2017-May-26 21:30N 51°56' E 004°10'1 2.4
2017-May-26 21:00N 51°56' E 004°08'3 5.9
2017-May-26 20:30N 51°56' E 004°04'0 0.0
2017-May-26 20:00N 51°56' E 004°04'0 0.0
2017-May-26 19:30N 51°56' E 004°04'0 0.0
2017-May-26 19:01N 51°56' E 004°04'0 0.0
2017-May-26 18:31N 51°56' E 004°04'0 0.0
2017-May-26 18:01N 51°56' E 004°04'0 0.2
2017-May-26 17:31N 51°56' E 004°04'0 0.2
2017-May-26 17:01N 51°56' E 004°04'0 0.0
2017-May-26 16:31N 51°56' E 004°04'0 0.0
2017-May-26 16:00N 51°56' E 004°04'0 0.0
2017-May-26 15:31N 51°56' E 004°04'0 0.0
2017-May-26 15:00N 51°56' E 004°04'0 0.0
2017-May-26 14:01N 51°56' E 004°04'0 0.0
2017-May-26 13:31N 51°56' E 004°04'0 0.0
2017-May-26 13:01N 51°56' E 004°04'1 2.1
2017-May-26 12:31N 51°57' E 004°02'0 0.0
2017-May-26 12:00N 51°57' E 004°02'0 0.0
2017-May-26 11:30N 51°57' E 004°02'1 1.6
2017-May-26 11:01N 51°56' E 004°03'1 1.6
2017-May-26 10:31N 51°57' E 004°02'0 0.0
2017-May-26 10:01N 51°57' E 004°02'0 0.0
2017-May-26 09:30N 51°57' E 004°02'0 0.0
2017-May-26 09:01N 51°57' E 004°02'0 0.0
2017-May-26 08:31N 51°57' E 004°02'0 0.0
2017-May-26 08:01N 51°57' E 004°02'0 0.0
2017-May-26 07:31N 51°57' E 004°02'0 0.0
2017-May-26 07:01N 51°57' E 004°02'0 0.0
2017-May-26 06:31N 51°57' E 004°02'0 0.0
2017-May-26 06:01N 51°57' E 004°02'0 0.0
2017-May-26 05:31N 51°57' E 004°02'0 0.0
2017-May-26 05:00N 51°57' E 004°02'0 0.0
2017-May-26 04:30N 51°57' E 004°02'0 0.1
2017-May-26 04:01N 51°56' E 004°02'0 0.1
2017-May-26 03:31N 51°57' E 004°02'0 0.0
2017-May-26 03:00N 51°57' E 004°02'0 0.0
2017-May-26 02:31N 51°57' E 004°02'0 0.0
2017-May-26 02:00N 51°57' E 004°02'0 0.0
2017-May-26 01:30N 51°57' E 004°02'0 0.0
2017-May-26 01:00N 51°57' E 004°02'0 0.0
2017-May-26 00:31N 51°57' E 004°02'0 0.0
2017-May-26 00:00N 51°57' E 004°02'0 0.0
2017-May-25 23:31N 51°57' E 004°02'0 0.0
2017-May-25 23:00N 51°57' E 004°02'0 0.0
2017-May-25 22:31N 51°57' E 004°02'0 0.0
2017-May-25 22:01N 51°57' E 004°02'0 0.0
2017-May-25 21:31N 51°57' E 004°02'0 0.0
2017-May-25 21:00N 51°57' E 004°02'0 0.0
2017-May-25 20:31N 51°57' E 004°02'0 0.0
2017-May-25 20:01N 51°57' E 004°02'0 0.0
2017-May-25 19:31N 51°57' E 004°02'0 0.0
2017-May-25 19:01N 51°57' E 004°02'0 0.0
2017-May-25 18:31N 51°57' E 004°02'0 0.0
2017-May-25 18:01N 51°57' E 004°02'0 0.0
2017-May-25 17:31N 51°57' E 004°02'0 0.0
2017-May-25 17:01N 51°57' E 004°02'0 0.0
2017-May-25 16:31N 51°57' E 004°02'0 0.0
2017-May-25 16:01N 51°57' E 004°02'0 0.0
2017-May-25 15:31N 51°57' E 004°02'0 0.0
2017-May-25 15:00N 51°57' E 004°02'2 4.6
2017-May-25 14:31N 51°56' E 004°06'8 7.6
2017-May-25 13:31N 51°52' E 004°16'4 7.7
2017-May-25 13:00N 51°51' E 004°22'5 9.3
2017-May-25 12:30N 51°50' E 004°29'5 9.2
2017-May-25 12:00N 51°48' E 004°36'2 4.0
2017-May-25 11:30N 51°49' E 004°39'0 0.0
2017-May-25 11:00N 51°49' E 004°39'0 0.5
2017-May-25 10:31N 51°49' E 004°39'5 9.6
2017-May-25 10:00N 51°44' E 004°38'18 6.2
2017-May-25 07:07N 51°34' E 004°13'7 8.5
2017-May-25 06:16N 51°27' E 004°14'0 0.0
2017-May-25 06:00N 51°27' E 004°14'4 6.5
2017-May-25 05:21N 51°23' E 004°15'2 5.8
2017-May-25 04:56N 51°21' E 004°18'1 1.4
2017-May-25 04:30N 51°21' E 004°17'0 0.0
2017-May-25 04:00N 51°21' E 004°17'0 0.0
2017-May-25 03:30N 51°21' E 004°17'0 0.0
2017-May-25 03:00N 51°21' E 004°17'0 0.0
2017-May-25 02:30N 51°21' E 004°17'0 0.0
2017-May-25 02:00N 51°21' E 004°17'0 0.0
2017-May-25 01:30N 51°21' E 004°17'0 0.0
2017-May-25 01:00N 51°21' E 004°17'0 0.0
2017-May-25 00:30N 51°21' E 004°17'0 0.0
2017-May-25 00:00N 51°21' E 004°17'0 0.0
2017-May-24 23:30N 51°21' E 004°17'0 0.0
2017-May-24 23:00N 51°21' E 004°17'0 0.0
2017-May-24 22:30N 51°21' E 004°17'0 0.0
2017-May-24 22:00N 51°21' E 004°17'0 0.0
2017-May-24 21:30N 51°21' E 004°17'0 0.0
2017-May-24 21:00N 51°21' E 004°17'0 0.0
2017-May-24 20:30N 51°21' E 004°17'0 0.0
2017-May-24 20:00N 51°21' E 004°17'0 0.0
2017-May-24 19:30N 51°21' E 004°17'0 0.0
2017-May-24 19:00N 51°21' E 004°17'0 0.0
2017-May-24 18:30N 51°21' E 004°17'0 0.0
2017-May-24 18:00N 51°21' E 004°17'0 0.0
2017-May-24 17:30N 51°21' E 004°17'0 0.0
2017-May-24 17:00N 51°21' E 004°17'0 0.0
2017-May-24 16:30N 51°21' E 004°17'0 0.0
2017-May-24 15:59N 51°21' E 004°17'0 0.0
2017-May-24 15:30N 51°21' E 004°17'0 0.0
2017-May-24 14:30N 51°21' E 004°17'4 4.3
2017-May-24 13:29N 51°25' E 004°14'14 5.7
2017-May-24 10:57N 51°39' E 004°19'4 8.5
2017-May-24 10:30N 51°41' E 004°24'1 2.4
2017-May-24 09:59N 51°42' E 004°26'4 8.2
2017-May-24 09:30N 51°42' E 004°32'4 8.5
2017-May-24 09:00N 51°43' E 004°39'4 8.8
2017-May-24 08:30N 51°46' E 004°44'4 8.7
2017-May-24 08:00N 51°48' E 004°50'2 3.3
2017-May-24 07:30N 51°49' E 004°53'2 3.3
2017-May-24 06:59N 51°50' E 004°55'23 8.6
2017-May-24 04:19N 51°54' E 005°31'1 0.3
2017-May-24 02:05N 51°54' E 005°32'1 0.1
2017-May-23 20:42N 51°54' E 005°33'2 9.2
2017-May-23 20:27N 51°54' E 005°37'4 9.2
2017-May-23 20:01N 51°53' E 005°44'5 9.0
2017-May-23 19:30N 51°52' E 005°50'4 7.6
2017-May-23 19:00N 51°52' E 005°56'3 6.3
2017-May-23 18:30N 51°53' E 006°01'5 9.1
2017-May-23 18:00N 51°51' E 006°08'5 9.3
2017-May-23 17:30N 51°50' E 006°15'4 8.9
2017-May-23 17:00N 51°46' E 006°20'4 7.5
2017-May-23 16:30N 51°44' E 006°25'4 7.8
2017-May-23 16:00N 51°41' E 006°28'4 8.7
2017-May-23 15:30N 51°40' E 006°35'4 8.2
2017-May-23 15:00N 51°36' E 006°36'7 6.6
2017-May-23 13:55N 51°30' E 006°43'2 5.2
2017-May-23 13:30N 51°28' E 006°43'11 6.9
2017-May-23 11:54N 51°17' E 006°42'4 8.9
2017-May-23 11:30N 51°14' E 006°46'3 6.0
2017-May-23 11:00N 51°11' E 006°44'4 7.0
2017-May-23 10:30N 51°09' E 006°48'13 6.6
2017-May-23 08:27N 50°58' E 006°59'4 8.4
2017-May-23 08:00N 50°54' E 006°60'3 4.9
2017-May-23 07:27N 50°51' E 007°00'3 6.9
2017-May-23 06:56N 50°48' E 007°02'4 9.7
2017-May-23 06:30N 50°45' E 007°06'5 9.0
2017-May-23 06:00N 50°41' E 007°11'  
2017-May-19 04:05N 49°31' E 008°26'1 8.6
2017-May-19 04:00N 49°30' E 008°26'  

Dump ship's entire track history